Brush Prairie, Washington
Current Conditions -  °F | °C
As of 10:53 AM on Monday 20 Oct 2014 (Local Time) from KVUO Reporting Station
Broken Clouds Broken Clouds  
Wind Chill: 61°   Ceiling: 9500
Heat Index: 61°   Visibility: 10mi
Dew Point: 55°   Wind: 8mph
Humidity: 81%   Direction: 170°S
Pressure: 29.79"   Gusts: NA
Location:  45.73°N, 122.55°W
Report Text: KVUO 201753Z AUTO 17007KT 10SM FEW016 SCT060 BKN095 16/13 A2979 RMK AO2 RAB02E16 SLP087 P0000 60001 T01610128 10161 20150 53003
Loading
Personal Weather Stations






























Interactive Weather Map
Tropical Storm Tracking
New forecast layout! Learn more

10-Day Weather Forecast

Advertisements
Track Severe Weather on mobile